createdAt,value
2023-04-12T00:02:27.915Z,59.11
2023-04-12T00:04:58.603Z,59.21
2023-04-12T00:07:27.231Z,59.17
2023-04-12T00:09:54.836Z,59.18
2023-04-12T00:12:22.486Z,59.26
2023-04-12T00:14:50.134Z,59.24
2023-04-12T00:17:19.102Z,59.27
2023-04-12T00:19:50.022Z,59.24
2023-04-12T00:22:17.608Z,59.44
2023-04-12T00:24:45.243Z,59.41
2023-04-12T00:27:13.040Z,59.30
2023-04-12T00:29:40.907Z,59.24
2023-04-12T00:32:08.503Z,59.50
2023-04-12T00:34:36.015Z,59.49
2023-04-12T00:37:04.043Z,59.57
2023-04-12T00:39:31.530Z,59.46
2023-04-12T00:42:03.909Z,59.77
2023-04-12T00:44:33.637Z,59.75
2023-04-12T00:47:03.682Z,59.78
2023-04-12T00:49:31.760Z,59.81
2023-04-12T00:52:10.057Z,59.79
2023-04-12T00:54:37.959Z,60.00
2023-04-12T00:57:05.716Z,60.09
2023-04-12T00:59:33.413Z,60.17
2023-04-12T01:02:01.449Z,60.24
2023-04-12T01:04:29.453Z,60.34
2023-04-12T01:07:28.835Z,60.31
2023-04-12T01:10:00.660Z,60.42
2023-04-12T01:12:51.408Z,60.60
2023-04-12T01:15:19.173Z,60.60
2023-04-12T01:17:58.356Z,60.67
2023-04-12T01:20:36.174Z,60.76
2023-04-12T01:23:28.467Z,60.88
2023-04-12T01:26:02.623Z,60.81
2023-04-12T01:28:36.129Z,60.87
2023-04-12T01:31:05.982Z,60.82
2023-04-12T01:33:35.231Z,60.74
2023-04-12T01:36:16.994Z,60.58
2023-04-12T01:38:45.649Z,60.66
2023-04-12T01:41:14.634Z,60.64
2023-04-12T01:43:43.797Z,60.68
2023-04-12T01:46:13.805Z,60.76
2023-04-12T01:48:45.971Z,60.78
2023-04-12T01:51:40.509Z,60.91
2023-04-12T01:54:13.705Z,60.82
2023-04-12T01:56:45.005Z,60.95
2023-04-12T01:59:15.956Z,61.00
2023-04-12T02:01:48.039Z,61.08
2023-04-12T02:04:17.299Z,61.01
2023-04-12T02:06:46.544Z,61.10
2023-04-12T02:09:14.019Z,61.09
2023-04-12T02:11:46.390Z,61.20
2023-04-12T02:14:13.956Z,61.16
2023-04-12T02:16:46.016Z,61.13
2023-04-12T02:19:14.005Z,61.28
2023-04-12T02:21:45.385Z,61.29
2023-04-12T02:24:13.085Z,61.47
2023-04-12T02:26:40.545Z,61.47
2023-04-12T02:29:10.356Z,61.41
2023-04-12T02:31:39.204Z,61.37
2023-04-12T02:34:07.678Z,61.24
2023-04-12T02:36:37.517Z,61.31
2023-04-12T02:39:05.741Z,61.33
2023-04-12T02:41:33.275Z,61.36
2023-04-12T02:44:01.195Z,61.42
2023-04-12T02:46:28.965Z,61.50
2023-04-12T02:48:56.645Z,61.63
2023-04-12T02:51:24.126Z,61.49
2023-04-12T02:53:51.718Z,61.58
2023-04-12T02:56:19.552Z,61.44
2023-04-12T02:58:48.770Z,61.65
2023-04-12T03:01:16.907Z,61.68
2023-04-12T03:03:44.496Z,61.70
2023-04-12T03:06:12.108Z,61.84
2023-04-12T03:08:39.816Z,61.83
2023-04-12T03:11:07.529Z,61.96
2023-04-12T03:13:34.953Z,61.99
2023-04-12T03:16:21.477Z,61.94
2023-04-12T03:18:51.671Z,61.89
2023-04-12T03:21:19.167Z,61.87
2023-04-12T03:23:46.795Z,61.78
2023-04-12T03:26:14.328Z,61.85
2023-04-12T03:28:43.261Z,62.01
2023-04-12T03:31:10.907Z,62.06
2023-04-12T03:33:39.014Z,62.06
2023-04-12T03:36:07.262Z,61.90
2023-04-12T03:38:34.848Z,61.97
2023-04-12T03:41:02.364Z,62.11
2023-04-12T03:43:35.874Z,62.14
2023-04-12T03:46:04.585Z,62.09
2023-04-12T03:48:32.651Z,62.24
2023-04-12T03:51:00.698Z,62.25
2023-04-12T03:53:28.254Z,62.30
2023-04-12T03:55:56.441Z,62.26
2023-04-12T03:58:23.957Z,62.08
2023-04-12T04:00:52.302Z,62.12
2023-04-12T04:03:20.125Z,62.23
2023-04-12T04:05:48.318Z,62.19
2023-04-12T04:08:15.957Z,62.21
2023-04-12T04:10:43.534Z,62.18
2023-04-12T04:13:11.093Z,62.19
2023-04-12T04:15:39.912Z,62.33
2023-04-12T04:18:08.697Z,62.32
2023-04-12T04:20:36.311Z,62.33
2023-04-12T04:23:03.799Z,62.44
2023-04-12T04:25:31.352Z,62.33
2023-04-12T04:27:59.759Z,62.32
2023-04-12T04:30:27.288Z,62.56
2023-04-12T04:32:54.886Z,62.62
2023-04-12T04:35:24.224Z,62.43
2023-04-12T04:37:52.819Z,62.58
2023-04-12T04:40:21.805Z,62.72
2023-04-12T04:42:54.668Z,62.73
2023-04-12T04:45:27.627Z,62.62
2023-04-12T04:47:56.373Z,62.55
2023-04-12T04:50:26.483Z,62.73
2023-04-12T04:52:53.993Z,62.87
2023-04-12T04:55:21.806Z,62.78
2023-04-12T04:57:49.306Z,62.75
2023-04-12T05:00:18.350Z,62.74
2023-04-12T05:02:46.476Z,62.87
2023-04-12T05:05:15.824Z,62.98
2023-04-12T05:07:43.838Z,63.12
2023-04-12T05:10:11.757Z,63.10
2023-04-12T05:12:39.263Z,63.19
2023-04-12T05:15:11.748Z,63.15
2023-04-12T05:17:41.163Z,63.13
2023-04-12T05:20:11.117Z,63.17
2023-04-12T05:22:38.851Z,63.13
2023-04-12T05:25:06.943Z,63.22
2023-04-12T05:27:34.564Z,63.13
2023-04-12T05:30:02.725Z,63.17
2023-04-12T05:32:31.832Z,63.04
2023-04-12T05:34:59.400Z,62.98
2023-04-12T05:37:30.156Z,63.08
2023-04-12T05:39:57.772Z,63.26
2023-04-12T05:42:27.056Z,63.08
2023-04-12T05:44:56.062Z,63.12
2023-04-12T05:47:26.827Z,63.02
2023-04-12T05:49:55.852Z,63.01
2023-04-12T05:52:23.749Z,62.86
2023-04-12T05:54:56.726Z,62.80
2023-04-12T05:57:27.863Z,62.76
2023-04-12T05:59:57.894Z,62.67
2023-04-12T06:02:26.325Z,62.70
2023-04-12T06:04:56.046Z,62.78
2023-04-12T06:07:25.384Z,62.73
2023-04-12T06:09:57.648Z,62.86
2023-04-12T06:12:28.489Z,62.65
2023-04-12T06:14:57.707Z,62.72
2023-04-12T06:17:28.142Z,62.78
2023-04-12T06:19:58.042Z,62.74
2023-04-12T06:22:30.285Z,62.57
2023-04-12T06:25:02.633Z,62.61
2023-04-12T06:27:33.277Z,62.40
2023-04-12T06:30:06.069Z,62.43
2023-04-12T06:32:39.164Z,62.26
2023-04-12T06:35:09.429Z,62.27
2023-04-12T06:37:38.543Z,62.23
2023-04-12T06:40:10.380Z,61.90
2023-04-12T06:42:42.649Z,62.03
2023-04-12T06:45:12.310Z,61.68
2023-04-12T06:47:57.484Z,61.87
2023-04-12T06:50:30.215Z,61.91
2023-04-12T06:52:59.720Z,61.87
2023-04-12T06:55:29.394Z,62.01
2023-04-12T06:57:57.712Z,61.78
2023-04-12T07:00:26.530Z,61.80
2023-04-12T07:02:55.460Z,62.02
2023-04-12T07:05:23.984Z,61.81
2023-04-12T07:07:51.586Z,61.88
2023-04-12T07:10:20.342Z,61.94
2023-04-12T07:12:48.034Z,61.70
2023-04-12T07:15:15.985Z,61.15
2023-04-12T07:17:43.681Z,61.30
2023-04-12T07:20:11.736Z,61.49
2023-04-12T07:22:39.560Z,61.40
2023-04-12T07:25:10.359Z,61.45
2023-04-12T07:27:38.467Z,61.41
2023-04-12T07:30:08.066Z,61.01
2023-04-12T07:32:35.695Z,60.89
2023-04-12T07:35:03.450Z,61.05
2023-04-12T07:37:31.047Z,61.11
2023-04-12T07:39:59.155Z,60.95
2023-04-12T07:42:28.295Z,60.95
2023-04-12T07:44:56.306Z,61.33
2023-04-12T07:47:24.005Z,61.44
2023-04-12T07:49:55.590Z,61.32
2023-04-12T07:52:23.251Z,61.36
2023-04-12T07:54:53.240Z,61.47
2023-04-12T07:57:25.974Z,61.32
2023-04-12T07:59:54.432Z,61.52
2023-04-12T08:02:25.806Z,61.53
2023-04-12T08:04:56.450Z,61.32
2023-04-12T08:07:24.125Z,61.38
2023-04-12T08:09:56.883Z,61.29
2023-04-12T08:12:26.174Z,61.19
2023-04-12T08:14:53.831Z,61.34
2023-04-12T08:17:21.640Z,61.34
2023-04-12T08:19:49.360Z,61.49
2023-04-12T08:22:16.973Z,61.46
2023-04-12T08:24:44.711Z,61.41
2023-04-12T08:27:13.870Z,61.17
2023-04-12T08:29:41.476Z,61.28
2023-04-12T08:32:10.170Z,61.38
2023-04-12T08:34:37.658Z,61.26
2023-04-12T08:37:05.775Z,61.38
2023-04-12T08:39:33.323Z,61.52
2023-04-12T08:42:02.936Z,61.19
2023-04-12T08:44:39.111Z,61.04
2023-04-12T08:47:15.393Z,61.41
2023-04-12T08:49:55.591Z,61.49
2023-04-12T08:52:29.439Z,61.61
2023-04-12T08:55:03.004Z,61.76
2023-04-12T08:57:37.520Z,61.53
2023-04-12T09:00:10.303Z,61.65
2023-04-12T09:02:39.752Z,61.55
2023-04-12T09:05:11.091Z,61.39
2023-04-12T09:07:38.565Z,61.27
2023-04-12T09:10:10.342Z,61.47
2023-04-12T09:12:54.195Z,61.34
2023-04-12T09:15:22.755Z,61.13
2023-04-12T09:18:04.246Z,61.12
2023-04-12T09:20:34.457Z,61.25
2023-04-12T09:23:22.217Z,61.00
2023-04-12T09:25:52.732Z,60.47
2023-04-12T09:28:31.087Z,60.54
2023-04-12T09:31:00.824Z,60.67
2023-04-12T09:33:39.901Z,60.54
2023-04-12T09:36:15.446Z,60.46
2023-04-12T09:39:10.785Z,60.55
2023-04-12T09:41:43.803Z,60.37
2023-04-12T09:44:31.504Z,60.19
2023-04-12T09:47:02.138Z,59.99
2023-04-12T09:49:43.750Z,59.92
2023-04-12T09:52:14.920Z,60.18
2023-04-12T09:54:45.870Z,60.21
2023-04-12T09:57:23.584Z,60.21
2023-04-12T09:59:53.520Z,60.34
2023-04-12T10:02:28.627Z,60.07
2023-04-12T10:04:57.152Z,60.15
2023-04-12T10:07:25.599Z,60.43
2023-04-12T10:09:54.691Z,60.36
2023-04-12T10:12:22.516Z,60.24
2023-04-12T10:14:51.757Z,60.24
2023-04-12T10:17:22.624Z,60.16
2023-04-12T10:19:57.802Z,60.13
2023-04-12T10:22:25.568Z,59.98
2023-04-12T10:24:53.195Z,60.04
2023-04-12T10:27:27.517Z,60.01
2023-04-12T10:30:31.010Z,59.95
2023-04-12T10:33:05.502Z,60.22
2023-04-12T10:36:03.469Z,59.68
2023-04-12T10:39:09.536Z,59.50
2023-04-12T10:41:37.565Z,59.20
2023-04-12T10:44:25.977Z,58.93
2023-04-12T10:46:59.829Z,59.30
2023-04-12T10:49:28.103Z,59.26
2023-04-12T10:52:02.852Z,59.16
2023-04-12T10:54:35.661Z,59.50
2023-04-12T10:57:04.880Z,59.48
2023-04-12T10:59:51.846Z,59.46
2023-04-12T11:02:19.867Z,59.53
2023-04-12T11:05:08.983Z,59.29
2023-04-12T11:07:42.532Z,59.43
2023-04-12T11:10:16.521Z,59.58
2023-04-12T11:12:54.895Z,59.88
2023-04-12T11:15:27.146Z,59.52
2023-04-12T11:17:57.289Z,59.25
2023-04-12T11:20:30.974Z,59.20
2023-04-12T11:23:00.957Z,59.18
2023-04-12T11:25:29.075Z,58.90
2023-04-12T11:27:56.819Z,58.14
2023-04-12T11:30:25.956Z,57.18
2023-04-12T11:32:53.876Z,56.91
2023-04-12T11:35:27.472Z,57.01
2023-04-12T11:37:57.613Z,57.48
2023-04-12T11:40:26.427Z,57.01
2023-04-12T11:42:54.342Z,56.73
2023-04-12T11:45:22.015Z,56.90
2023-04-12T11:47:52.115Z,57.41
2023-04-12T11:50:37.491Z,57.56
2023-04-12T11:53:17.916Z,57.10
2023-04-12T11:55:49.957Z,56.63
2023-04-12T11:58:22.794Z,56.70
2023-04-12T12:00:51.252Z,56.60
2023-04-12T12:03:19.814Z,56.37
2023-04-12T12:05:49.998Z,56.38
2023-04-12T12:08:19.033Z,55.90
2023-04-12T12:11:04.571Z,55.94
2023-04-12T12:13:49.167Z,56.44
2023-04-12T12:16:19.820Z,55.97
2023-04-12T12:19:14.541Z,56.31
2023-04-12T12:21:49.741Z,56.68
2023-04-12T12:24:17.860Z,56.48
2023-04-12T12:26:45.403Z,56.10
2023-04-12T12:29:18.458Z,55.73
2023-04-12T12:31:49.344Z,55.45
2023-04-12T12:34:19.582Z,55.66
2023-04-12T12:36:57.872Z,54.39
2023-04-12T12:39:26.256Z,54.17
2023-04-12T12:41:56.632Z,53.72
2023-04-12T12:44:25.221Z,53.91
2023-04-12T12:47:00.595Z,53.49
2023-04-12T12:49:41.154Z,52.96
2023-04-12T12:52:17.199Z,52.63
2023-04-12T12:54:55.170Z,52.67
2023-04-12T12:57:26.620Z,52.37
2023-04-12T12:59:55.723Z,52.18
2023-04-12T13:02:24.090Z,52.66
2023-04-12T13:04:52.801Z,52.53
2023-04-12T13:07:21.043Z,51.60
2023-04-12T13:09:49.697Z,51.40
2023-04-12T13:12:22.000Z,51.22
2023-04-12T13:14:49.857Z,51.49
2023-04-12T13:17:17.503Z,51.74
2023-04-12T13:19:48.644Z,52.38
2023-04-12T13:22:19.327Z,52.16
2023-04-12T13:24:46.967Z,51.78
2023-04-12T13:27:16.433Z,50.99
2023-04-12T13:29:44.148Z,50.36
2023-04-12T13:32:13.321Z,50.11
2023-04-12T13:34:41.300Z,50.54
2023-04-12T13:37:08.921Z,50.59
2023-04-12T13:39:36.948Z,50.72
2023-04-12T13:42:04.634Z,50.47
2023-04-12T13:44:32.237Z,51.01
2023-04-12T13:46:59.932Z,50.94
2023-04-12T13:49:27.613Z,50.88
2023-04-12T13:51:56.938Z,51.14
2023-04-12T13:54:24.764Z,51.63
2023-04-12T13:56:52.399Z,51.95
2023-04-12T13:59:20.162Z,51.44
2023-04-12T14:01:48.011Z,50.56
2023-04-12T14:04:15.839Z,50.26
2023-04-12T14:06:46.195Z,50.05
2023-04-12T14:09:33.066Z,49.30
2023-04-12T14:12:01.713Z,48.45
2023-04-12T14:14:30.838Z,48.49
2023-04-12T14:17:02.130Z,48.21
2023-04-12T14:19:29.922Z,48.39
2023-04-12T14:22:00.548Z,48.39
2023-04-12T14:24:28.173Z,48.32
2023-04-12T14:26:58.383Z,47.49
2023-04-12T14:29:27.211Z,47.02
2023-04-12T14:31:54.753Z,47.43
2023-04-12T14:34:22.537Z,47.88
2023-04-12T14:36:50.073Z,47.99
2023-04-12T14:39:17.775Z,47.80
2023-04-12T14:41:47.122Z,48.06
2023-04-12T14:44:19.968Z,47.72
2023-04-12T14:46:48.252Z,47.21
2023-04-12T14:49:17.180Z,47.11
2023-04-12T14:51:44.905Z,46.94
2023-04-12T14:54:12.531Z,46.93
2023-04-12T14:56:48.569Z,47.17
2023-04-12T14:59:20.461Z,47.30
2023-04-12T15:01:48.573Z,47.03
2023-04-12T15:04:17.820Z,46.82
2023-04-12T15:06:46.356Z,46.99
2023-04-12T15:09:15.905Z,47.04
2023-04-12T15:11:46.609Z,47.23
2023-04-12T15:14:20.507Z,47.29
2023-04-12T15:16:51.480Z,47.37
2023-04-12T15:19:23.453Z,47.29
2023-04-12T15:21:55.051Z,47.30
2023-04-12T15:24:26.595Z,47.38
2023-04-12T15:26:57.500Z,47.42
2023-04-12T15:29:28.110Z,47.65
2023-04-12T15:31:56.570Z,47.66
2023-04-12T15:34:25.235Z,47.74
2023-04-12T15:36:53.660Z,47.83
2023-04-12T15:39:21.519Z,47.98
2023-04-12T15:41:49.135Z,47.96
2023-04-12T15:44:16.800Z,47.82
2023-04-12T15:46:56.057Z,47.93
2023-04-12T15:49:33.078Z,47.91
2023-04-12T15:52:03.421Z,48.02
2023-04-12T15:54:31.048Z,47.87
2023-04-12T15:56:59.842Z,47.87
2023-04-12T15:59:29.915Z,47.87
2023-04-12T16:01:58.859Z,48.05
2023-04-12T16:04:27.328Z,48.12
2023-04-12T16:06:55.166Z,48.19
2023-04-12T16:09:25.783Z,48.12
2023-04-12T16:11:53.397Z,48.26
2023-04-12T16:14:20.973Z,48.25
2023-04-12T16:16:48.728Z,48.27
2023-04-12T16:19:16.486Z,48.22
2023-04-12T16:21:44.882Z,48.41
2023-04-12T16:24:14.385Z,48.33
2023-04-12T16:26:42.143Z,48.49
2023-04-12T16:29:11.793Z,48.56
2023-04-12T16:31:39.460Z,48.61
2023-04-12T16:34:08.263Z,48.69
2023-04-12T16:36:35.834Z,48.66
2023-04-12T16:39:03.561Z,48.66
2023-04-12T16:41:31.610Z,48.68
2023-04-12T16:44:01.500Z,48.73
2023-04-12T16:46:29.822Z,48.66
2023-04-12T16:48:59.336Z,48.61
2023-04-12T16:51:27.204Z,48.78
2023-04-12T16:54:04.903Z,48.80
2023-04-12T16:56:33.493Z,48.95
2023-04-12T16:59:01.203Z,48.93
2023-04-12T17:01:28.994Z,49.02
2023-04-12T17:03:57.461Z,49.09
2023-04-12T17:06:27.299Z,49.02
2023-04-12T17:08:54.921Z,49.05
2023-04-12T17:11:22.862Z,49.17
2023-04-12T17:13:52.518Z,49.18
2023-04-12T17:16:20.764Z,49.10
2023-04-12T17:18:48.482Z,49.24
2023-04-12T17:21:20.412Z,49.21
2023-04-12T17:23:49.049Z,49.27
2023-04-12T17:26:19.040Z,49.37
2023-04-12T17:28:50.014Z,49.49
2023-04-12T17:31:20.732Z,49.53
2023-04-12T17:33:48.437Z,49.69
2023-04-12T17:36:16.211Z,49.49
2023-04-12T17:38:45.788Z,49.75
2023-04-12T17:41:13.757Z,49.74
2023-04-12T17:43:47.619Z,49.88
2023-04-12T17:46:15.581Z,49.86
2023-04-12T17:48:43.275Z,49.88
2023-04-12T17:51:10.961Z,49.85
2023-04-12T17:53:39.057Z,50.02
2023-04-12T17:56:07.587Z,49.96
2023-04-12T17:58:35.823Z,50.00
2023-04-12T18:01:03.700Z,50.01
2023-04-12T18:03:31.541Z,50.05
2023-04-12T18:06:00.873Z,50.18
2023-04-12T18:08:28.597Z,50.27
2023-04-12T18:10:56.401Z,50.29
2023-04-12T18:13:25.598Z,50.38
2023-04-12T18:15:53.448Z,50.36
2023-04-12T18:18:21.186Z,50.48
2023-04-12T18:20:49.023Z,50.55
2023-04-12T18:23:16.902Z,50.70
2023-04-12T18:25:45.322Z,50.65
2023-04-12T18:28:13.122Z,50.66
2023-04-12T18:30:40.961Z,50.77
2023-04-12T18:33:08.853Z,50.94
2023-04-12T18:35:39.248Z,50.98
2023-04-12T18:38:07.753Z,51.01
2023-04-12T18:40:38.822Z,50.93
2023-04-12T18:43:09.597Z,51.14
2023-04-12T18:45:41.317Z,51.27
2023-04-12T18:48:10.260Z,51.28
2023-04-12T18:50:41.494Z,51.49
2023-04-12T18:53:10.595Z,51.51
2023-04-12T18:55:38.184Z,51.57
2023-04-12T18:58:08.974Z,51.59
2023-04-12T19:00:37.223Z,51.81
2023-04-12T19:03:05.355Z,52.04
2023-04-12T19:05:40.256Z,52.08
2023-04-12T19:08:14.889Z,52.05
2023-04-12T19:10:42.641Z,51.91
2023-04-12T19:13:10.316Z,51.98
2023-04-12T19:15:38.520Z,52.20
2023-04-12T19:18:06.350Z,52.27
2023-04-12T19:20:34.393Z,52.39
2023-04-12T19:23:05.422Z,52.37
2023-04-12T19:25:34.917Z,52.63
2023-04-12T19:28:02.829Z,52.82
2023-04-12T19:30:32.126Z,52.80
2023-04-12T19:32:59.962Z,52.89
2023-04-12T19:35:32.641Z,53.11
2023-04-12T19:38:03.950Z,53.18
2023-04-12T19:40:33.204Z,53.21
2023-04-12T19:43:00.978Z,53.14
2023-04-12T19:45:28.750Z,53.30
2023-04-12T19:47:56.476Z,53.21
2023-04-12T19:50:24.902Z,53.42
2023-04-12T19:52:52.641Z,53.64
2023-04-12T19:55:21.609Z,53.52
2023-04-12T19:57:49.273Z,53.65
2023-04-12T20:00:20.439Z,53.75
2023-04-12T20:02:50.417Z,53.77
2023-04-12T20:05:20.140Z,53.91
2023-04-12T20:07:47.735Z,53.92
2023-04-12T20:10:15.732Z,53.96
2023-04-12T20:12:44.556Z,54.09
2023-04-12T20:15:12.265Z,54.09
2023-04-12T20:17:41.452Z,54.12
2023-04-12T20:20:10.890Z,54.27
2023-04-12T20:22:39.655Z,54.44
2023-04-12T20:25:10.279Z,54.35
2023-04-12T20:27:38.947Z,54.63
2023-04-12T20:30:08.995Z,54.61
2023-04-12T20:32:37.279Z,54.61
2023-04-12T20:35:05.368Z,54.86
2023-04-12T20:37:33.878Z,54.82
2023-04-12T20:40:02.910Z,54.89
2023-04-12T20:42:30.462Z,54.87
2023-04-12T20:44:59.276Z,54.88
2023-04-12T20:47:27.677Z,54.97
2023-04-12T20:49:56.341Z,55.25
2023-04-12T20:52:24.226Z,55.20
2023-04-12T20:54:53.359Z,55.15
2023-04-12T20:57:20.926Z,55.32
2023-04-12T20:59:48.459Z,55.48
2023-04-12T21:02:16.483Z,55.60
2023-04-12T21:04:45.010Z,55.65
2023-04-12T21:07:13.470Z,55.77
2023-04-12T21:09:41.299Z,55.65
2023-04-12T21:12:09.533Z,55.83
2023-04-12T21:14:37.865Z,55.79
2023-04-12T21:17:07.465Z,55.79
2023-04-12T21:19:42.475Z,55.79
2023-04-12T21:22:10.228Z,55.93
2023-04-12T21:24:43.892Z,56.13
2023-04-12T21:27:13.160Z,55.99
2023-04-12T21:29:41.002Z,56.23
2023-04-12T21:32:09.591Z,56.11
2023-04-12T21:34:37.320Z,56.30
2023-04-12T21:37:05.310Z,56.43
2023-04-12T21:39:33.133Z,56.40
2023-04-12T21:42:04.240Z,56.31
2023-04-12T21:44:31.806Z,56.39
2023-04-12T21:46:59.319Z,56.46
2023-04-12T21:49:29.972Z,56.49
2023-04-12T21:51:59.134Z,56.61
2023-04-12T21:54:31.199Z,56.58
2023-04-12T21:56:58.671Z,56.69
2023-04-12T21:59:27.351Z,56.78
2023-04-12T22:01:54.907Z,56.90
2023-04-12T22:04:22.416Z,56.73
2023-04-12T22:06:51.531Z,56.82
2023-04-12T22:09:20.304Z,56.89
2023-04-12T22:11:49.008Z,57.01
2023-04-12T22:14:16.593Z,57.22
2023-04-12T22:16:45.093Z,57.21
2023-04-12T22:19:13.014Z,57.27
2023-04-12T22:21:41.436Z,57.31
2023-04-12T22:24:09.003Z,57.42
2023-04-12T22:26:36.464Z,57.42
2023-04-12T22:29:05.720Z,57.51
2023-04-12T22:31:33.814Z,57.52
2023-04-12T22:34:01.714Z,57.60
2023-04-12T22:36:29.745Z,57.62
2023-04-12T22:38:57.274Z,57.90
2023-04-12T22:41:28.707Z,57.82
2023-04-12T22:44:01.621Z,57.89
2023-04-12T22:46:33.039Z,57.93
2023-04-12T22:49:00.797Z,57.84
2023-04-12T22:51:28.332Z,57.98
2023-04-12T22:53:56.687Z,58.05
2023-04-12T22:56:26.883Z,58.04
2023-04-12T22:58:55.527Z,57.94
2023-04-12T23:01:23.213Z,58.17
2023-04-12T23:03:51.645Z,58.21
2023-04-12T23:06:26.764Z,58.24
2023-04-12T23:08:54.171Z,58.16
2023-04-12T23:11:21.649Z,58.13
2023-04-12T23:13:49.127Z,58.29
2023-04-12T23:16:17.088Z,58.29
2023-04-12T23:18:44.940Z,58.29
2023-04-12T23:21:12.386Z,58.31
2023-04-12T23:23:40.469Z,58.53
2023-04-12T23:26:07.901Z,58.45
2023-04-12T23:28:35.542Z,58.49
2023-04-12T23:31:03.223Z,58.67
2023-04-12T23:33:30.718Z,58.71
2023-04-12T23:36:03.013Z,58.90
2023-04-12T23:38:34.553Z,58.76
2023-04-12T23:41:12.463Z,58.89
2023-04-12T23:43:40.554Z,58.90
2023-04-12T23:46:08.176Z,58.88
2023-04-12T23:48:36.592Z,58.83
2023-04-12T23:51:04.531Z,58.84
2023-04-12T23:53:33.001Z,58.92
2023-04-12T23:56:00.529Z,58.85
2023-04-12T23:58:28.016Z,58.95
